createdAt,value
2019-04-07T00:04:54.941Z,42.00
2019-04-07T00:09:58.201Z,45.67
2019-04-07T00:15:01.482Z,42.73
2019-04-07T00:20:06.634Z,42.13
2019-04-07T00:25:10.705Z,45.03
2019-04-07T00:30:14.553Z,45.03
2019-04-07T00:35:26.504Z,47.83
2019-04-07T00:40:22.729Z,47.73
2019-04-07T00:45:26.339Z,46.40
2019-04-07T00:50:30.593Z,49.10
2019-04-07T01:00:41.368Z,42.90
2019-04-07T01:05:44.955Z,43.53
2019-04-07T01:10:48.219Z,41.77
2019-04-07T01:15:51.478Z,43.07
2019-04-07T01:20:54.746Z,40.40
2019-04-07T01:25:58.564Z,42.20
2019-04-07T01:31:02.362Z,43.93
2019-04-07T01:36:05.906Z,41.13
2019-04-07T01:41:13.745Z,39.57
2019-04-07T01:46:21.781Z,36.27
2019-04-07T01:51:26.781Z,40.10
2019-04-07T01:56:47.050Z,41.63
2019-04-07T02:02:07.199Z,39.37
2019-04-07T02:07:14.905Z,44.20
2019-04-07T02:12:19.936Z,40.13
2019-04-07T02:17:25.222Z,42.13
2019-04-07T02:22:35.776Z,41.03
2019-04-07T02:27:41.013Z,41.67
2019-04-07T02:32:58.380Z,42.33
2019-04-07T02:38:04.020Z,40.37
2019-04-07T02:43:15.925Z,44.60
2019-04-07T02:48:22.087Z,44.17
2019-04-07T02:53:33.147Z,41.77
2019-04-07T02:58:55.095Z,38.27
2019-04-07T03:04:06.034Z,38.53
2019-04-07T03:09:23.047Z,39.27
2019-04-07T03:14:28.455Z,46.07
2019-04-07T03:19:48.613Z,42.13
2019-04-07T03:24:53.597Z,42.30
2019-04-07T03:30:15.143Z,44.50
2019-04-07T03:35:30.166Z,46.33
2019-04-07T03:40:39.722Z,38.57
2019-04-07T03:46:00.294Z,37.23
2019-04-07T03:51:24.514Z,37.47
2019-04-07T03:56:41.771Z,40.10
2019-04-07T04:01:47.757Z,37.57
2019-04-07T04:06:56.738Z,37.60
2019-04-07T04:12:05.124Z,38.47
2019-04-07T04:17:08.452Z,37.50
2019-04-07T04:22:12.796Z,39.33
2019-04-07T04:27:16.933Z,40.83
2019-04-07T04:32:21.858Z,35.63
2019-04-07T04:37:36.220Z,37.20
2019-04-07T04:42:31.177Z,37.33
2019-04-07T04:47:34.593Z,36.30
2019-04-07T04:52:38.354Z,34.73
2019-04-07T04:57:42.494Z,36.13
2019-04-07T05:02:46.903Z,33.60
2019-04-07T05:07:59.203Z,29.50
2019-04-07T05:12:56.122Z,24.07
2019-04-07T05:18:00.404Z,33.57
2019-04-07T05:23:04.119Z,32.40
2019-04-07T05:28:07.439Z,33.30
2019-04-07T05:33:11.078Z,29.57
2019-04-07T05:38:14.784Z,13.83
2019-04-07T05:43:18.485Z,23.60
2019-04-07T05:48:21.926Z,25.97
2019-04-07T05:53:26.612Z,17.83
2019-04-07T05:58:29.969Z,28.77
2019-04-07T06:03:33.262Z,27.53
2019-04-07T06:08:39.231Z,30.63
2019-04-07T06:13:43.870Z,27.33
2019-04-07T06:18:46.671Z,27.73
2019-04-07T06:23:49.876Z,27.53
2019-04-07T06:28:57.402Z,27.13
2019-04-07T06:33:58.928Z,25.43
2019-04-07T06:39:02.492Z,25.40
2019-04-07T06:44:25.550Z,25.73
2019-04-07T06:49:30.417Z,27.13
2019-04-07T06:54:41.460Z,25.80
2019-04-07T07:00:02.426Z,26.00
2019-04-07T07:05:25.692Z,28.77
2019-04-07T07:10:35.549Z,35.40
2019-04-07T07:15:43.832Z,30.07
2019-04-07T07:21:04.378Z,19.60
2019-04-07T07:26:09.078Z,19.77
2019-04-07T07:31:13.401Z,20.73
2019-04-07T07:36:19.162Z,16.90
2019-04-07T07:41:23.308Z,13.90
2019-04-07T07:46:26.863Z,11.67
2019-04-07T07:51:30.361Z,16.90
2019-04-07T07:56:34.564Z,29.53
2019-04-07T08:01:37.967Z,16.37
2019-04-07T08:06:41.252Z,25.53
2019-04-07T08:11:44.563Z,12.83
2019-04-07T08:16:47.937Z,10.17
2019-04-07T08:21:51.990Z,11.27
2019-04-07T08:26:57.208Z,9.47
2019-04-07T08:32:02.004Z,10.43
2019-04-07T08:37:05.989Z,12.03
2019-04-07T08:42:11.818Z,12.60
2019-04-07T08:47:19.202Z,10.37
2019-04-07T08:52:19.631Z,12.13
2019-04-07T08:57:23.339Z,12.70
2019-04-07T09:02:29.316Z,13.70
2019-04-07T09:07:33.376Z,18.43
2019-04-07T09:12:36.433Z,11.43
2019-04-07T09:17:59.147Z,10.90
2019-04-07T09:23:07.102Z,11.40
2019-04-07T09:28:12.043Z,10.93
2019-04-07T09:33:29.808Z,9.00
2019-04-07T09:38:38.575Z,9.60
2019-04-07T09:44:02.094Z,9.93
2019-04-07T09:49:23.595Z,18.73
2019-04-07T09:54:28.560Z,10.90
2019-04-07T10:02:41.218Z,13.00
2019-04-07T10:07:49.149Z,11.80
2019-04-07T10:12:56.574Z,12.20
2019-04-07T10:18:20.464Z,10.97
2019-04-07T10:23:28.770Z,10.40
2019-04-07T10:28:41.897Z,11.40
2019-04-07T10:33:50.568Z,9.13
2019-04-07T10:38:56.970Z,13.00
2019-04-07T10:44:05.637Z,10.17
2019-04-07T10:49:20.653Z,9.63
2019-04-07T10:54:35.535Z,9.67
2019-04-07T10:59:56.865Z,12.17
2019-04-07T11:05:11.945Z,22.80
2019-04-07T11:10:34.478Z,10.80
2019-04-07T11:15:45.826Z,10.73
2019-04-07T11:21:07.715Z,9.10
2019-04-07T11:26:25.284Z,11.97
2019-04-07T11:31:31.084Z,9.43
2019-04-07T11:36:39.681Z,13.00
2019-04-07T11:41:51.488Z,10.20
2019-04-07T11:46:57.497Z,9.07
2019-04-07T11:52:06.022Z,11.07
2019-04-07T11:57:21.374Z,11.07
2019-04-07T12:02:36.407Z,12.43
2019-04-07T12:07:42.186Z,12.97
2019-04-07T12:13:04.800Z,13.33
2019-04-07T12:18:26.660Z,12.90
2019-04-07T12:23:50.525Z,12.97
2019-04-07T12:29:01.563Z,12.80
2019-04-07T12:34:10.235Z,14.23
2019-04-07T12:39:20.216Z,15.90
2019-04-07T12:44:41.953Z,15.77
2019-04-07T12:49:47.267Z,14.57
2019-04-07T12:55:02.968Z,14.23
2019-04-07T13:00:13.550Z,14.00
2019-04-07T13:05:25.005Z,15.47
2019-04-07T13:10:32.541Z,14.17
2019-04-07T13:15:48.947Z,15.50
2019-04-07T13:20:54.825Z,14.80
2019-04-07T13:26:01.030Z,14.80
2019-04-07T13:31:17.001Z,18.37
2019-04-07T13:36:25.280Z,15.13
2019-04-07T13:41:41.692Z,14.17
2019-04-07T13:46:48.937Z,14.57
2019-04-07T13:52:00.084Z,15.50
2019-04-07T13:57:07.287Z,18.23
2019-04-07T14:02:24.786Z,15.50
2019-04-07T14:07:40.267Z,18.30
2019-04-07T14:13:04.732Z,15.03
2019-04-07T14:18:19.085Z,14.83
2019-04-07T14:23:41.059Z,15.40
2019-04-07T14:28:47.549Z,17.33
2019-04-07T14:34:02.004Z,13.93
2019-04-07T14:39:12.856Z,14.63
2019-04-07T14:44:33.650Z,13.53
2019-04-07T14:49:39.259Z,13.43
2019-04-07T14:55:01.645Z,15.70
2019-04-07T15:00:09.472Z,14.40
2019-04-07T15:05:27.685Z,13.83
2019-04-07T15:10:52.667Z,14.67
2019-04-07T15:15:57.167Z,16.40
2019-04-07T15:21:01.680Z,24.03
2019-04-07T15:26:06.738Z,15.43
2019-04-07T15:31:11.791Z,15.83
2019-04-07T15:36:18.763Z,11.40
2019-04-07T15:41:20.977Z,13.00
2019-04-07T15:46:25.619Z,10.73
2019-04-07T15:51:29.511Z,11.30
2019-04-07T15:56:33.711Z,9.57
2019-04-07T16:01:38.632Z,11.90
2019-04-07T16:06:47.028Z,11.17
2019-04-07T16:11:50.329Z,11.80
2019-04-07T16:16:54.774Z,13.53
2019-04-07T16:21:58.733Z,12.43
2019-04-07T16:27:05.407Z,9.93
2019-04-07T16:32:11.396Z,14.47
2019-04-07T16:37:15.916Z,10.20
2019-04-07T16:42:21.134Z,9.40
2019-04-07T16:47:26.272Z,12.37
2019-04-07T16:52:32.908Z,11.77
2019-04-07T16:57:36.335Z,10.20
2019-04-07T17:02:39.990Z,9.53
2019-04-07T17:07:45.516Z,9.00
2019-04-07T17:12:49.391Z,13.73
2019-04-07T17:17:54.773Z,12.03
2019-04-07T17:22:58.519Z,11.43
2019-04-07T17:28:03.739Z,15.37
2019-04-07T17:33:08.155Z,20.87
2019-04-07T17:38:13.068Z,17.73
2019-04-07T17:43:43.530Z,12.00
2019-04-07T17:48:50.384Z,16.00
2019-04-07T17:53:58.231Z,16.53
2019-04-07T17:59:08.667Z,16.03
2019-04-07T18:04:15.550Z,13.30
2019-04-07T18:09:29.814Z,13.57
2019-04-07T18:14:53.894Z,11.87
2019-04-07T18:20:12.964Z,8.90
2019-04-07T18:25:18.368Z,10.70
2019-04-07T18:30:32.391Z,9.87
2019-04-07T18:35:39.694Z,7.77
2019-04-07T18:40:44.981Z,9.63
2019-04-07T18:46:07.277Z,8.67
2019-04-07T18:51:29.368Z,13.00
2019-04-07T18:56:40.152Z,11.53
2019-04-07T19:01:47.260Z,9.83
2019-04-07T19:06:56.573Z,10.27
2019-04-07T19:12:14.176Z,12.53
2019-04-07T19:17:24.051Z,10.33
2019-04-07T19:22:28.755Z,21.33
2019-04-07T19:27:40.570Z,11.57
2019-04-07T19:32:54.289Z,15.07
2019-04-07T19:38:09.685Z,15.83
2019-04-07T19:43:33.183Z,13.27
2019-04-07T19:48:47.507Z,12.17
2019-04-07T19:53:53.606Z,12.57
2019-04-07T19:58:59.829Z,10.87
2019-04-07T20:04:12.686Z,10.90
2019-04-07T20:09:27.859Z,12.33
2019-04-07T20:14:49.304Z,9.33
2019-04-07T20:19:49.416Z,10.90
2019-04-07T20:25:16.983Z,9.87
2019-04-07T20:30:21.233Z,14.83
2019-04-07T20:35:29.694Z,12.87
2019-04-07T20:40:44.467Z,10.90
2019-04-07T20:45:50.078Z,11.57
2019-04-07T20:50:56.265Z,14.17
2019-04-07T20:56:17.371Z,11.20
2019-04-07T21:01:42.988Z,13.10
2019-04-07T21:06:48.238Z,10.93
2019-04-07T21:12:10.462Z,11.90
2019-04-07T21:17:24.742Z,10.37
2019-04-07T21:22:40.078Z,11.90
2019-04-07T21:28:00.063Z,12.67
2019-04-07T21:33:11.188Z,10.77
2019-04-07T21:38:24.243Z,10.03
2019-04-07T21:43:31.967Z,13.67
2019-04-07T21:48:39.981Z,11.53
2019-04-07T21:53:45.488Z,10.80
2019-04-07T21:59:07.508Z,10.33
2019-04-07T22:04:18.879Z,11.27
2019-04-07T22:09:23.267Z,11.23
2019-04-07T22:14:27.000Z,11.20
2019-04-07T22:19:30.761Z,10.87
2019-04-07T22:24:35.992Z,11.80
2019-04-07T22:29:39.866Z,11.27
2019-04-07T22:34:44.035Z,11.10
2019-04-07T22:39:48.991Z,11.87
2019-04-07T22:44:54.383Z,12.30
2019-04-07T22:50:02.508Z,11.57
2019-04-07T22:55:08.430Z,13.93
2019-04-07T23:00:14.929Z,11.47
2019-04-07T23:05:19.170Z,10.57
2019-04-07T23:10:23.265Z,11.40
2019-04-07T23:15:38.627Z,10.53
2019-04-07T23:20:33.019Z,9.83
2019-04-07T23:25:37.044Z,10.47
2019-04-07T23:30:41.041Z,14.40
2019-04-07T23:35:47.419Z,11.00
2019-04-07T23:40:51.497Z,11.40
2019-04-07T23:45:55.936Z,12.13
2019-04-07T23:50:59.745Z,11.23
2019-04-07T23:56:03.964Z,11.97
